Time;durP1;ratioP1;P1;durP2;ratioP2;P2;SDS_P1;SDS_P2;PMS_P1;PMS_P2;Temp;Humidity;BMP_temperature;BMP_pressure;BME280_temperature;BME280_humidity;BME280_pressure;Samples;Min_cycle;Max_cycle;Signal;HPM_P1;HPM_P2
2022/03/26 00:00:28;;;;;;;123.15;52.08;;;;;;;5.48;100.00;102436.84;5025808;28;20049;-77
2022/03/26 00:03:11;;;;;;;133.00;54.92;;;;;;;5.43;100.00;102433.63;5026275;28;20029;-78
2022/03/26 00:05:37;;;;;;;111.35;49.75;;;;;;;5.40;100.00;102433.78;5025695;28;20033;-77
2022/03/26 00:08:03;;;;;;;113.85;50.72;;;;;;;5.38;100.00;102430.34;5013532;28;20128;-77
2022/03/26 00:10:28;;;;;;;112.88;50.58;;;;;;;5.27;100.00;102424.84;5017751;28;20941;-77
2022/03/26 00:12:56;;;;;;;104.17;49.00;;;;;;;5.21;100.00;102422.53;5016937;28;20029;-77
2022/03/26 00:15:22;;;;;;;119.38;50.92;;;;;;;5.19;100.00;102427.91;5032474;28;20359;-78
2022/03/26 00:17:47;;;;;;;117.63;50.47;;;;;;;5.18;100.00;102420.06;5031527;28;20101;-78
2022/03/26 00:20:13;;;;;;;118.57;49.57;;;;;;;5.08;100.00;102425.88;5017454;28;20030;-77
2022/03/26 00:22:38;;;;;;;118.37;47.70;;;;;;;5.04;100.00;102421.69;5028016;28;20044;-78
2022/03/26 00:25:04;;;;;;;123.07;52.00;;;;;;;5.06;100.00;102432.19;5027963;28;20120;-77
2022/03/26 00:27:30;;;;;;;125.65;52.53;;;;;;;4.95;100.00;102422.19;5027365;28;20041;-77
2022/03/26 00:29:56;;;;;;;122.85;51.85;;;;;;;4.98;100.00;102426.44;5011161;28;20033;-78
2022/03/26 00:32:22;;;;;;;114.53;51.13;;;;;;;4.98;100.00;102424.66;5011842;28;20037;-78
2022/03/26 00:34:47;;;;;;;118.93;50.97;;;;;;;5.00;100.00;102429.88;5030802;28;20410;-78
2022/03/26 00:37:13;;;;;;;116.57;51.77;;;;;;;4.99;100.00;102422.88;5032718;28;20021;-78
2022/03/26 00:39:39;;;;;;;123.90;53.47;;;;;;;4.98;100.00;102427.28;5014260;28;20276;-76
2022/03/26 00:42:05;;;;;;;;;;;;;;;4.95;100.00;102424.84;5031461;28;20638;-78
2022/03/26 00:44:31;;;;;;;120.57;51.70;;;;;;;4.95;100.00;102430.13;5030899;28;19908;-78
2022/03/26 00:46:57;;;;;;;119.30;49.80;;;;;;;5.02;100.00;102433.28;5031398;28;20529;-78
2022/03/26 00:49:22;;;;;;;118.80;50.77;;;;;;;5.12;100.00;102433.63;5014009;28;20026;-78
2022/03/26 00:51:47;;;;;;;122.97;52.50;;;;;;;5.12;100.00;102423.03;5014748;28;20030;-78
2022/03/26 00:54:13;;;;;;;124.60;51.57;;;;;;;5.11;100.00;102422.19;5031828;28;20853;-77
2022/03/26 00:56:40;;;;;;;110.78;49.42;;;;;;;5.10;100.00;102424.91;5028677;28;20119;-77
2022/03/26 00:59:06;;;;;;;122.45;51.28;;;;;;;5.06;100.00;102425.09;5012639;28;20063;-77
2022/03/26 01:01:32;;;;;;;113.35;51.22;;;;;;;5.08;100.00;102419.72;5012468;28;20037;-77
2022/03/26 01:03:58;;;;;;;111.25;49.70;;;;;;;5.10;100.00;102419.63;5012315;28;20493;-77
2022/03/26 01:06:24;;;;;;;118.53;50.33;;;;;;;5.12;100.00;102417.75;5029496;28;20033;-77
2022/03/26 01:08:49;;;;;;;117.60;49.87;;;;;;;5.19;100.00;102421.75;5028669;28;20044;-77
2022/03/26 01:11:16;;;;;;;109.50;49.30;;;;;;;5.16;100.00;102408.69;5028316;28;20033;-77
2022/03/26 01:13:42;;;;;;;112.10;49.30;;;;;;;5.07;100.00;102402.97;5028693;28;20033;-76
2022/03/26 01:16:07;;;;;;;102.70;45.40;;;;;;;5.12;100.00;102402.72;5011712;28;20072;-77
2022/03/26 01:18:33;;;;;;;107.93;48.57;;;;;;;5.13;100.00;102403.56;5029785;28;20037;-78
2022/03/26 01:20:59;;;;;;;101.68;47.05;;;;;;;5.14;100.00;102411.41;5028218;28;20029;-76
2022/03/26 01:23:24;;;;;;;101.47;47.03;;;;;;;5.12;100.00;102407.16;5030039;28;20033;-77
2022/03/26 01:25:50;;;;;;;99.57;45.83;;;;;;;5.10;100.00;102401.09;5028171;28;20467;-77
2022/03/26 01:28:15;;;;;;;104.20;48.27;;;;;;;5.06;100.00;102409.22;5028955;28;20073;-76
2022/03/26 01:30:41;;;;;;;112.43;47.77;;;;;;;5.04;100.00;102405.78;5028440;28;20030;-77
2022/03/26 01:33:06;;;;;;;102.05;46.40;;;;;;;5.01;100.00;102411.28;5030121;28;20560;-78
2022/03/26 01:35:32;;;;;;;100.68;47.28;;;;;;;5.00;100.00;102411.34;5028966;28;20041;-78
2022/03/26 01:38:01;;;;;;;96.20;44.73;;;;;;;5.02;100.00;102401.53;5028359;28;20028;-78
2022/03/26 01:40:27;;;;;;;102.93;44.65;;;;;;;5.01;100.00;102403.31;5028497;28;20256;-78
2022/03/26 01:42:52;;;;;;;98.00;43.45;;;;;;;5.04;100.00;102395.19;5028080;28;20026;-77
2022/03/26 01:45:17;;;;;;;102.83;44.77;;;;;;;5.08;100.00;102396.75;5027862;28;20135;-77
2022/03/26 01:47:43;;;;;;;100.23;46.03;;;;;;;5.06;100.00;102398.63;5027821;28;20041;-78
2022/03/26 01:50:08;;;;;;;103.20;45.70;;;;;;;5.06;100.00;102389.84;5027526;28;20048;-77
2022/03/26 01:52:33;;;;;;;96.03;43.70;;;;;;;5.07;100.00;102400.31;5029229;28;20040;-76
2022/03/26 01:54:59;;;;;;;90.13;40.53;;;;;;;5.18;100.00;102401.53;5011542;28;20064;-77
2022/03/26 01:57:25;;;;;;;98.77;43.57;;;;;;;5.16;100.00;102398.09;5029392;28;20025;-78
2022/03/26 01:59:51;;;;;;;100.18;43.15;;;;;;;5.25;100.00;102405.53;5014738;28;20047;-78
2022/03/26 02:02:16;;;;;;;90.18;40.38;;;;;;;5.29;100.00;102409.69;5040115;28;20029;-78
2022/03/26 02:04:41;;;;;;;98.77;41.60;;;;;;;5.35;100.00;102395.25;5045597;28;20021;-77
2022/03/26 02:07:07;;;;;;;93.27;41.93;;;;;;;5.24;100.00;102379.97;5044510;28;20018;-76
2022/03/26 02:09:35;;;;;;;91.97;41.23;;;;;;;5.29;100.00;102396.44;5044079;28;20371;-76
2022/03/26 02:12:01;;;;;;;83.43;39.03;;;;;;;5.32;100.00;102385.69;5030395;28;20032;-78
2022/03/26 02:14:27;;;;;;;87.80;41.28;;;;;;;5.36;100.00;102381.94;5028119;28;20034;-77
2022/03/26 02:16:52;;;;;;;94.37;42.57;;;;;;;5.34;100.00;102370.56;5028352;28;20017;-78
2022/03/26 02:19:19;;;;;;;91.88;42.03;;;;;;;5.27;100.00;102370.06;5028652;28;20037;-78
2022/03/26 02:21:49;;;;;;;88.13;40.70;;;;;;;5.26;100.00;102372.78;5028134;28;20029;-77
2022/03/26 02:24:15;;;;;;;86.07;40.00;;;;;;;5.35;100.00;102366.97;5028601;28;20033;-77
2022/03/26 02:26:40;;;;;;;91.45;41.03;;;;;;;5.35;100.00;102368.78;5028833;28;20508;-77
2022/03/26 02:29:11;;;;;;;90.37;39.60;;;;;;;5.37;100.00;102364.25;5011255;28;20049;-78
2022/03/26 02:31:38;;;;;;;86.93;40.75;;;;;;;5.29;100.00;102348.78;5011045;28;20280;-78
2022/03/26 02:34:05;;;;;;;87.18;41.17;;;;;;;5.19;100.00;102345.81;5027302;28;20080;-77
2022/03/26 02:36:31;;;;;;;97.15;41.60;;;;;;;5.22;100.00;102352.72;5027368;28;20043;-76
2022/03/26 02:38:56;;;;;;;92.57;41.58;;;;;;;5.15;100.00;102354.00;5026969;28;20029;-77
2022/03/26 02:41:22;;;;;;;90.70;41.17;;;;;;;5.19;100.00;102353.75;5028199;28;20040;-77
2022/03/26 02:43:47;;;;;;;86.57;39.40;;;;;;;5.23;100.00;102343.84;5026994;28;20040;-77
2022/03/26 02:46:13;;;;;;;88.60;40.57;;;;;;;5.20;100.00;102346.69;5006713;28;20120;-78
2022/03/26 02:48:39;;;;;;;92.10;39.63;;;;;;;5.17;100.00;102344.19;5025504;28;20083;-78
2022/03/26 02:51:06;;;;;;;90.82;41.13;;;;;;;5.17;100.00;102347.69;5009075;28;20037;-78
2022/03/26 02:53:31;;;;;;;95.63;44.28;;;;;;;5.21;100.00;102345.72;5025889;28;20029;-78
2022/03/26 02:55:57;;;;;;;84.60;39.88;;;;;;;5.24;100.00;102348.19;5025067;28;20064;-78
2022/03/26 02:58:22;;;;;;;92.30;40.20;;;;;;;5.19;100.00;102350.25;5026922;28;20033;-77
2022/03/26 03:00:48;;;;;;;95.87;43.27;;;;;;;5.18;100.00;102356.50;5026776;28;20052;-78
2022/03/26 03:03:13;;;;;;;100.17;42.37;;;;;;;5.21;100.00;102348.38;5026241;28;20017;-78
2022/03/26 03:05:38;;;;;;;90.80;44.03;;;;;;;5.16;100.00;102339.84;5009081;28;20033;-78
2022/03/26 03:08:04;;;;;;;85.33;42.80;;;;;;;5.14;100.00;102333.78;5025657;28;20063;-78
2022/03/26 03:10:30;;;;;;;94.82;39.45;;;;;;;5.16;100.00;102345.16;5014448;28;20451;-78
2022/03/26 03:12:56;;;;;;;;;;;;;;;5.17;100.00;102346.84;5027271;28;20065;-77
2022/03/26 03:15:21;;;;;;;;;;;;;;;5.11;100.00;102347.22;5026729;28;19913;-77
2022/03/26 03:17:49;;;;;;;83.30;38.33;;;;;;;5.16;100.00;102355.75;5026780;28;19909;-78
2022/03/26 03:20:15;;;;;;;97.95;41.72;;;;;;;5.11;100.00;102339.28;5025050;28;20030;-78
2022/03/26 03:22:42;;;;;;;96.13;42.20;;;;;;;5.03;100.00;102335.28;5008677;28;20056;-78
2022/03/26 03:25:09;;;;;;;88.38;41.70;;;;;;;5.01;100.00;102337.16;5025801;28;20029;-79
2022/03/26 03:27:35;;;;;;;95.43;42.92;;;;;;;5.06;100.00;102327.16;5025880;28;20040;-78
2022/03/26 03:30:01;;;;;;;97.93;44.42;;;;;;;5.02;100.00;102327.41;5026954;28;20033;-78
2022/03/26 03:32:26;;;;;;;103.32;43.63;;;;;;;4.97;100.00;102332.97;5004113;28;20037;-78
2022/03/26 03:34:52;;;;;;;98.00;42.43;;;;;;;4.95;100.00;102331.34;5008852;28;20442;-77
2022/03/26 03:37:18;;;;;;;95.38;42.67;;;;;;;4.97;100.00;102332.13;5009313;28;20025;-78
2022/03/26 03:39:44;;;;;;;96.30;41.13;;;;;;;4.98;100.00;102329.34;5008982;28;20048;-78
2022/03/26 03:42:09;;;;;;;102.65;43.35;;;;;;;4.91;100.00;102335.94;5025588;28;20044;-78
2022/03/26 03:44:35;;;;;;;97.37;44.73;;;;;;;4.88;100.00;102332.63;5025584;28;20381;-78
2022/03/26 03:47:01;;;;;;;91.57;42.35;;;;;;;4.83;100.00;102319.66;5025263;28;20087;-77
2022/03/26 03:49:29;;;;;;;97.88;44.08;;;;;;;4.86;100.00;102325.63;5025632;28;20037;-79
2022/03/26 03:51:54;;;;;;;104.50;43.83;;;;;;;4.79;100.00;102323.41;5027283;28;20407;-78
2022/03/26 03:54:20;;;;;;;104.33;44.00;;;;;;;4.75;100.00;102324.50;5026600;28;20072;-78
2022/03/26 03:56:45;;;;;;;103.87;46.10;;;;;;;4.81;100.00;102330.31;5025573;28;20104;-78
2022/03/26 03:59:12;;;;;;;106.03;44.37;;;;;;;4.83;100.00;102323.16;5025346;28;20037;-78
2022/03/26 04:01:37;;;;;;;103.95;48.40;;;;;;;4.74;100.00;102330.75;5027061;28;20071;-78
2022/03/26 04:04:03;;;;;;;109.53;43.97;;;;;;;4.74;100.00;102322.81;5025035;28;20022;-78
2022/03/26 04:06:28;;;;;;;96.07;43.37;;;;;;;4.88;100.00;102327.34;5009161;28;20699;-77
2022/03/26 04:08:54;;;;;;;103.07;46.47;;;;;;;4.86;100.00;102322.97;5022646;28;20037;-78
2022/03/26 04:11:19;;;;;;;99.97;47.67;;;;;;;4.79;100.00;102318.13;5030774;28;20060;-78
2022/03/26 04:13:46;;;;;;;101.47;44.13;;;;;;;4.77;100.00;102317.34;5030622;28;20037;-78
2022/03/26 04:16:12;;;;;;;103.88;42.03;;;;;;;4.70;100.00;102310.69;5032176;28;20498;-78
2022/03/26 04:18:37;;;;;;;99.07;43.75;;;;;;;4.74;100.00;102314.88;5031890;28;20092;-78
2022/03/26 04:21:03;;;;;;;103.93;42.90;;;;;;;4.73;100.00;102316.69;5032700;28;20024;-78
2022/03/26 04:23:28;;;;;;;95.80;40.40;;;;;;;4.66;100.00;102320.63;5032320;28;20033;-78
2022/03/26 04:25:54;;;;;;;105.33;46.00;;;;;;;4.66;100.00;102320.63;5032227;28;20055;-79
2022/03/26 04:28:20;;;;;;;101.57;42.57;;;;;;;4.68;100.00;102317.88;5033211;28;20764;-79
2022/03/26 04:30:45;;;;;;;110.10;46.58;;;;;;;4.62;100.00;102333.16;5032980;28;20033;-78
2022/03/26 04:33:10;;;;;;;102.70;45.77;;;;;;;4.58;100.00;102341.34;5033664;28;20033;-77
2022/03/26 04:35:36;;;;;;;106.37;48.73;;;;;;;4.57;100.00;102343.13;5032888;28;20025;-79
2022/03/26 04:38:02;;;;;;;109.25;47.20;;;;;;;4.63;100.00;102341.94;5025113;28;20029;-79
2022/03/26 04:40:28;;;;;;;101.03;47.03;;;;;;;4.65;100.00;102348.00;5033397;28;20475;-80
2022/03/26 04:42:54;;;;;;;104.20;47.05;;;;;;;4.68;100.00;102344.31;5021143;28;20033;-79
2022/03/26 04:45:20;;;;;;;120.50;47.65;;;;;;;4.84;100.00;102353.97;5034400;28;20327;-79
2022/03/26 04:47:45;;;;;;;118.87;51.50;;;;;;;4.82;100.00;102347.94;5031260;28;20556;-77
2022/03/26 04:50:11;;;;;;;104.83;46.07;;;;;;;4.85;100.00;102349.53;5030290;28;20025;-77
2022/03/26 04:52:36;;;;;;;106.28;48.22;;;;;;;4.84;100.00;102337.22;5031756;28;20402;-80
2022/03/26 04:55:03;;;;;;;122.93;50.60;;;;;;;4.83;100.00;102338.19;5013061;28;20025;-78
2022/03/26 04:57:29;;;;;;;123.68;50.15;;;;;;;4.79;100.00;102344.56;5026733;28;20112;-76
2022/03/26 04:59:55;;;;;;;112.95;48.05;;;;;;;4.71;100.00;102349.47;5010614;28;20497;-78
2022/03/26 05:02:20;;;;;;;107.50;46.45;;;;;;;4.73;100.00;102332.56;5029712;28;20040;-78
2022/03/26 05:04:45;;;;;;;107.70;50.20;;;;;;;4.74;100.00;102338.69;5029050;28;20021;-77
2022/03/26 05:07:58;;;;;;;125.63;52.17;;;;;;;4.78;100.00;102340.25;5011063;28;20125;-77
2022/03/26 05:09:56;;;;;;;125.63;52.00;;;;;;;4.80;100.00;102333.03;5025044;28;20045;-76
2022/03/26 05:12:22;;;;;;;125.13;51.60;;;;;;;4.85;100.00;102336.31;5010845;28;20033;-77
2022/03/26 05:14:47;;;;;;;117.78;51.58;;;;;;;4.76;100.00;102334.19;5005890;28;20041;-79
2022/03/26 05:17:13;;;;;;;120.30;49.40;;;;;;;4.71;100.00;102341.53;5027671;28;20040;-78
2022/03/26 05:19:39;;;;;;;118.17;49.67;;;;;;;4.71;100.00;102336.22;5008986;28;20087;-77
2022/03/26 05:22:04;;;;;;;116.03;50.72;;;;;;;4.71;100.00;102333.59;5008372;28;20045;-77
2022/03/26 05:24:30;;;;;;;119.95;49.67;;;;;;;4.69;100.00;102338.94;5027919;28;20282;-76
2022/03/26 05:26:56;;;;;;;124.95;50.13;;;;;;;4.76;100.00;102332.38;5027519;28;20048;-77
2022/03/26 05:29:21;;;;;;;125.20;52.50;;;;;;;4.74;100.00;102342.19;5025638;28;20025;-76
2022/03/26 05:31:47;;;;;;;113.17;48.63;;;;;;;4.84;100.00;102329.28;5026055;28;20056;-78
2022/03/26 05:34:13;;;;;;;118.25;50.40;;;;;;;4.88;100.00;102341.41;5010543;28;20052;-77
2022/03/26 05:36:39;;;;;;;125.18;49.40;;;;;;;4.92;100.00;102344.75;5009239;28;20827;-77
2022/03/26 05:39:04;;;;;;;120.50;48.25;;;;;;;5.00;100.00;102332.78;5027851;28;20221;-76
2022/03/26 05:41:31;;;;;;;110.27;49.80;;;;;;;5.02;100.00;102328.25;5026788;28;20116;-77
2022/03/26 05:43:56;;;;;;;;;;;;;;;5.07;100.00;102336.78;5029215;28;20040;-77
2022/03/26 05:46:21;;;;;;;;;;;;;;;5.06;100.00;102337.72;5012116;28;19909;-78
2022/03/26 05:48:47;;;;;;;111.67;46.30;;;;;;;5.12;100.00;102340.97;5029009;28;20003;-76
2022/03/26 05:51:12;;;;;;;102.17;44.00;;;;;;;5.20;100.00;102339.59;5012585;28;20022;-79
2022/03/26 05:53:37;;;;;;;113.33;45.07;;;;;;;5.25;100.00;102339.31;5011811;28;20399;-77
2022/03/26 05:56:03;;;;;;;106.73;45.00;;;;;;;5.33;100.00;102342.38;5028003;28;20478;-79
2022/03/26 05:58:28;;;;;;;107.70;44.08;;;;;;;5.43;100.00;102343.56;5026702;28;20025;-77
2022/03/26 06:00:54;;;;;;;106.00;42.37;;;;;;;5.52;100.00;102341.28;5011368;28;20387;-77
2022/03/26 06:03:20;;;;;;;93.33;37.87;;;;;;;6.08;100.00;102358.25;5027690;28;20282;-77
2022/03/26 06:05:46;;;;;;;95.00;41.13;;;;;;;6.23;100.00;102344.06;5026666;28;20129;-79
2022/03/26 06:08:12;;;;;;;100.55;40.92;;;;;;;6.05;100.00;102337.25;5010999;28;20032;-78
2022/03/26 06:10:37;;;;;;;94.60;40.57;;;;;;;6.02;100.00;102353.34;5010713;28;20406;-79
2022/03/26 06:13:03;;;;;;;93.37;40.00;;;;;;;6.03;100.00;102350.59;5030593;28;20090;-76
2022/03/26 06:15:28;;;;;;;96.10;41.35;;;;;;;6.02;100.00;102361.31;5010196;28;20343;-76
2022/03/26 06:17:53;;;;;;;81.23;35.47;;;;;;;6.29;100.00;102370.19;5009253;28;20102;-78
2022/03/26 06:20:19;;;;;;;79.97;38.43;;;;;;;6.31;100.00;102376.25;5027838;28;20064;-78
2022/03/26 06:22:45;;;;;;;87.60;36.47;;;;;;;6.27;100.00;102372.09;5028404;28;20025;-77
2022/03/26 06:25:10;;;;;;;81.23;36.60;;;;;;;6.26;100.00;102364.25;5019506;28;20033;-77
2022/03/26 06:27:35;;;;;;;91.80;40.23;;;;;;;6.26;100.00;102367.75;5029127;28;20072;-77
2022/03/26 06:30:01;;;;;;;88.33;38.53;;;;;;;6.36;100.00;102370.66;5027095;28;20399;-78
2022/03/26 06:32:27;;;;;;;88.65;36.28;;;;;;;6.49;100.00;102371.63;5027915;28;20029;-78
2022/03/26 06:34:52;;;;;;;80.13;38.50;;;;;;;6.48;100.00;102363.75;5011705;28;20120;-77
2022/03/26 06:37:20;;;;;;;78.27;35.80;;;;;;;6.45;100.00;102369.25;5028302;28;20040;-76
2022/03/26 06:39:45;;;;;;;87.60;37.33;;;;;;;6.46;100.00;102355.03;5010982;28;20026;-77
2022/03/26 06:42:11;;;;;;;76.80;34.77;;;;;;;6.54;100.00;102355.41;5010281;28;20029;-78
2022/03/26 06:44:36;;;;;;;88.97;37.00;;;;;;;6.70;100.00;102358.78;5011212;28;20048;-78
2022/03/26 06:47:02;;;;;;;77.67;33.13;;;;;;;6.71;100.00;102355.19;5009828;28;20596;-79
2022/03/26 06:49:30;;;;;;;80.80;35.92;;;;;;;6.81;100.00;102354.59;5027624;28;20772;-79
2022/03/26 06:51:56;;;;;;;84.93;35.95;;;;;;;6.88;100.00;102354.13;5028725;28;20087;-76
2022/03/26 06:54:21;;;;;;;75.40;32.75;;;;;;;6.92;100.00;102352.09;5011597;28;20025;-76
2022/03/26 06:56:46;;;;;;;72.07;31.87;;;;;;;6.95;100.00;102343.94;5028121;28;20041;-77
2022/03/26 06:59:17;;;;;;;69.55;30.00;;;;;;;7.07;100.00;102340.50;5012615;28;20089;-77
2022/03/26 07:01:44;;;;;;;60.57;27.67;;;;;;;7.17;100.00;102352.19;5028154;28;20152;-77
2022/03/26 07:04:15;;;;;;;58.78;27.52;;;;;;;7.12;100.00;102349.00;5028661;28;20018;-77
2022/03/26 07:06:40;;;;;;;56.90;25.00;;;;;;;7.28;100.00;102367.44;5028447;28;20103;-79
2022/03/26 07:09:05;;;;;;;50.40;23.70;;;;;;;7.46;100.00;102368.00;5028127;28;20021;-78
2022/03/26 07:11:31;;;;;;;52.73;24.27;;;;;;;7.48;100.00;102375.88;5028746;28;20556;-78
2022/03/26 07:13:56;;;;;;;51.17;23.70;;;;;;;7.60;100.00;102364.44;5019884;28;20060;-79
2022/03/26 07:16:21;;;;;;;42.93;21.43;;;;;;;7.74;100.00;102368.81;5011928;28;20033;-79
2022/03/26 07:18:47;;;;;;;44.13;20.90;;;;;;;7.83;100.00;102378.81;5011323;28;20116;-77
2022/03/26 07:21:12;;;;;;;45.70;21.57;;;;;;;7.86;100.00;102378.59;5012011;28;20025;-76
2022/03/26 07:23:37;;;;;;;45.60;21.23;;;;;;;7.90;100.00;102382.75;5028504;28;20030;-78
2022/03/26 07:26:03;;;;;;;41.83;19.67;;;;;;;7.89;100.00;102381.06;5011574;28;20038;-76
2022/03/26 07:28:29;;;;;;;34.97;17.13;;;;;;;7.98;100.00;102383.09;5011778;28;20040;-78
2022/03/26 07:30:55;;;;;;;44.85;19.52;;;;;;;7.96;100.00;102382.34;5011801;28;20821;-77
2022/03/26 07:33:21;;;;;;;38.73;18.80;;;;;;;7.99;100.00;102382.13;5028199;28;20029;-79
2022/03/26 07:35:46;;;;;;;37.63;17.48;;;;;;;8.17;100.00;102379.13;5029474;28;20133;-78
2022/03/26 07:38:13;;;;;;;44.88;17.88;;;;;;;8.19;100.00;102377.22;5029545;28;20053;-78
2022/03/26 07:40:38;;;;;;;40.17;17.10;;;;;;;8.26;100.00;102378.50;5027023;28;20038;-80
2022/03/26 07:43:04;;;;;;;34.65;15.90;;;;;;;8.38;100.00;102363.47;5015455;28;20021;-77
2022/03/26 07:45:29;;;;;;;34.63;17.40;;;;;;;8.35;100.00;102364.53;5012498;28;20037;-77
2022/03/26 07:47:56;;;;;;;31.77;15.80;;;;;;;8.50;100.00;102364.44;5016429;28;20029;-80
2022/03/26 07:50:22;;;;;;;37.13;17.15;;;;;;;8.52;100.00;102362.53;5015880;28;20040;-77
2022/03/26 07:52:47;;;;;;;32.47;16.15;;;;;;;8.52;100.00;102363.41;5015717;28;20505;-77
2022/03/26 07:55:13;;;;;;;43.60;18.37;;;;;;;8.51;100.00;102372.34;5016643;28;20061;-78
2022/03/26 07:57:38;;;;;;;34.77;15.93;;;;;;;8.53;100.00;102365.09;5032072;28;20060;-76
2022/03/26 08:00:05;;;;;;;33.40;15.27;;;;;;;8.51;100.00;102366.16;5031278;28;20090;-78
2022/03/26 08:02:38;;;;;;;33.17;14.50;;;;;;;8.63;100.00;102373.28;5032096;28;20033;-77
2022/03/26 08:05:04;;;;;;;32.00;15.27;;;;;;;8.65;100.00;102379.34;5015985;28;20075;-77
2022/03/26 08:07:29;;;;;;;34.80;17.58;;;;;;;8.66;100.00;102375.69;5013498;28;20025;-78
2022/03/26 08:09:55;;;;;;;31.97;15.27;;;;;;;8.65;100.00;102374.84;5014545;28;20041;-79
2022/03/26 08:12:20;;;;;;;30.90;15.70;;;;;;;8.69;100.00;102385.31;5031655;28;20151;-77
2022/03/26 08:14:46;;;;;;;37.63;16.00;;;;;;;8.72;100.00;102390.41;5014958;28;20110;-78
2022/03/26 08:17:11;;;;;;;30.50;16.67;;;;;;;8.82;100.00;102381.63;5015472;28;20057;-79
2022/03/26 08:19:37;;;;;;;33.10;15.25;;;;;;;8.79;100.00;102381.84;5032362;28;20406;-78
2022/03/26 08:22:03;;;;;;;28.67;13.73;;;;;;;8.99;100.00;102388.41;5028264;28;20029;-77
2022/03/26 08:24:28;;;;;;;;;;;;;;;9.14;100.00;102401.56;5012462;28;20034;-77
2022/03/26 08:26:54;;;;;;;;;;;;;;;9.07;100.00;102385.19;5017630;28;19967;-78
2022/03/26 08:29:20;;;;;;;31.23;14.35;;;;;;;8.88;100.00;102383.00;5016865;28;19931;-78
2022/03/26 08:31:46;;;;;;;31.67;15.30;;;;;;;8.86;100.00;102393.75;5011465;28;20033;-78
2022/03/26 08:34:12;;;;;;;39.10;17.53;;;;;;;8.76;100.00;102382.09;5028512;28;20386;-78
2022/03/26 08:36:38;;;;;;;31.95;16.23;;;;;;;8.79;100.00;102403.16;5028528;28;20117;-78
2022/03/26 08:39:03;;;;;;;31.52;15.90;;;;;;;8.80;100.00;102399.56;5010961;28;20042;-77
2022/03/26 08:41:29;;;;;;;34.25;17.65;;;;;;;8.81;100.00;102413.72;5027830;28;20110;-77
2022/03/26 08:43:54;;;;;;;31.47;14.93;;;;;;;8.85;100.00;102405.41;5024712;28;20156;-77
2022/03/26 08:46:21;;;;;;;38.97;17.83;;;;;;;8.82;100.00;102402.94;5011172;28;20021;-79
2022/03/26 08:48:47;;;;;;;36.40;18.35;;;;;;;8.85;100.00;102407.22;5027351;28;20124;-77
2022/03/26 08:51:12;;;;;;;32.05;17.10;;;;;;;8.87;100.00;102413.25;5010766;28;20021;-77
2022/03/26 08:53:39;;;;;;;37.35;17.25;;;;;;;8.92;100.00;102405.81;5010066;28;20487;-80
2022/03/26 08:56:06;;;;;;;38.10;16.23;;;;;;;8.99;100.00;102407.06;5010779;28;20090;-79
2022/03/26 08:58:31;;;;;;;36.35;18.88;;;;;;;9.02;100.00;102401.50;5009993;28;20071;-78
2022/03/26 09:00:57;;;;;;;30.65;16.27;;;;;;;8.99;100.00;102409.72;5025687;28;20060;-77
2022/03/26 09:03:22;;;;;;;39.07;17.97;;;;;;;8.95;100.00;102408.25;5010096;28;20495;-78
2022/03/26 09:05:49;;;;;;;34.90;15.73;;;;;;;9.02;100.00;102414.81;5026126;28;20040;-77
2022/03/26 09:08:15;;;;;;;32.97;16.50;;;;;;;9.04;100.00;102412.91;5026399;28;20512;-78
2022/03/26 09:10:41;;;;;;;36.30;17.70;;;;;;;9.00;100.00;102418.56;5010038;28;20124;-78
2022/03/26 09:13:06;;;;;;;33.85;16.45;;;;;;;9.13;100.00;102427.38;5008427;28;20111;-78
2022/03/26 09:15:32;;;;;;;37.30;16.50;;;;;;;9.21;100.00;102422.31;5026854;28;20033;-78
2022/03/26 09:17:58;;;;;;;37.73;16.33;;;;;;;9.15;100.00;102417.44;5026978;28;20025;-78
2022/03/26 09:20:24;;;;;;;30.27;16.85;;;;;;;9.36;100.00;102432.81;5021475;28;20040;-77
2022/03/26 09:22:49;;;;;;;32.17;15.67;;;;;;;9.39;100.00;102414.78;5026930;28;20033;-78
2022/03/26 09:25:16;;;;;;;27.93;14.70;;;;;;;9.35;100.00;102425.78;5010551;28;20026;-77
2022/03/26 09:27:42;;;;;;;32.85;17.38;;;;;;;9.36;100.00;102420.31;5027060;28;20167;-78
2022/03/26 09:30:08;;;;;;;34.20;17.35;;;;;;;9.48;100.00;102426.56;5026642;28;20108;-77
2022/03/26 09:32:33;;;;;;;32.35;16.80;;;;;;;9.63;100.00;102425.44;5010687;28;20036;-78
2022/03/26 09:34:58;;;;;;;25.97;13.97;;;;;;;9.88;100.00;102442.22;5010481;28;20052;-77
2022/03/26 09:37:24;;;;;;;30.67;14.70;;;;;;;10.01;100.00;102436.81;5028384;28;20041;-78
2022/03/26 09:39:49;;;;;;;25.93;13.67;;;;;;;9.98;100.00;102421.91;5009427;28;20669;-78
2022/03/26 09:42:15;;;;;;;17.20;9.57;;;;;;;10.07;100.00;102423.88;5009706;28;20513;-79
2022/03/26 09:44:40;;;;;;;14.73;7.68;;;;;;;10.01;100.00;102423.47;5025860;28;20041;-78
2022/03/26 09:47:10;;;;;;;17.17;7.17;;;;;;;10.02;100.00;102426.03;5009340;28;20225;-78
2022/03/26 09:49:37;;;;;;;11.13;5.55;;;;;;;9.92;100.00;102419.69;5025296;28;20646;-77
2022/03/26 09:52:05;;;;;;;9.90;5.22;;;;;;;9.97;100.00;102433.53;5005615;28;20483;-77
2022/03/26 09:54:32;;;;;;;8.57;5.15;;;;;;;10.18;100.00;102430.19;5025552;28;20509;-78
2022/03/26 09:56:57;;;;;;;9.70;5.28;;;;;;;10.20;100.00;102430.91;5026542;28;20047;-77
2022/03/26 09:59:24;;;;;;;9.13;4.90;;;;;;;10.33;100.00;102434.38;5024934;28;20029;-78
2022/03/26 10:01:50;;;;;;;12.13;5.70;;;;;;;10.36;100.00;102420.78;5025802;28;20099;-78
2022/03/26 10:04:21;;;;;;;7.80;4.82;;;;;;;10.46;100.00;102418.22;5009034;28;20044;-79
2022/03/26 10:06:50;;;;;;;10.13;5.18;;;;;;;10.66;100.00;102435.34;5014354;28;20037;-78
2022/03/26 10:09:38;;;;;;;6.53;4.40;;;;;;;10.84;100.00;102425.00;5008802;28;20029;-78
2022/03/26 10:12:05;;;;;;;11.73;5.43;;;;;;;10.76;100.00;102414.94;5022335;28;20029;-77
2022/03/26 10:14:45;;;;;;;6.28;4.63;;;;;;;10.93;100.00;102416.25;5025419;28;20117;-78
2022/03/26 10:17:17;;;;;;;9.45;5.07;;;;;;;10.73;98.85;102394.66;5018207;28;20087;-77
2022/03/26 10:20:04;;;;;;;9.18;5.07;;;;;;;11.05;99.35;102415.28;5025574;28;20038;-78
2022/03/26 10:22:44;;;;;;;8.75;4.72;;;;;;;11.53;99.13;102427.41;5008772;28;20038;-78
2022/03/26 10:25:16;;;;;;;9.55;3.85;;;;;;;11.67;94.96;102403.00;5025886;28;20032;-78
2022/03/26 10:27:46;;;;;;;7.53;3.75;;;;;;;11.80;92.40;102394.81;5009186;28;20037;-78
2022/03/26 10:30:14;;;;;;;9.30;4.65;;;;;;;11.79;89.78;102361.81;5025662;28;20028;-77
2022/03/26 10:32:44;;;;;;;5.72;3.97;;;;;;;11.68;89.18;102361.03;5026021;28;20028;-78
2022/03/26 10:35:27;;;;;;;4.55;3.03;;;;;;;11.96;87.72;102370.25;5010227;28;20537;-77
2022/03/26 10:37:56;;;;;;;5.47;3.30;;;;;;;11.88;85.91;102348.69;5012418;28;20351;-79
2022/03/26 10:40:36;;;;;;;8.30;3.67;;;;;;;12.00;85.91;102361.00;5028860;28;20045;-78
2022/03/26 10:43:03;;;;;;;6.85;3.28;;;;;;;12.48;85.05;102365.75;5020192;28;20028;-78
2022/03/26 10:45:33;;;;;;;5.35;3.40;;;;;;;12.27;83.60;102351.53;5012268;28;20087;-79
2022/03/26 10:48:01;;;;;;;4.75;3.10;;;;;;;12.38;82.41;102335.38;5029737;28;20390;-78
2022/03/26 10:50:32;;;;;;;5.90;3.83;;;;;;;12.19;81.91;102338.81;5011752;28;20021;-79
2022/03/26 10:52:59;;;;;;;6.18;3.42;;;;;;;12.09;82.16;102344.13;5028721;28;20025;-78
2022/03/26 10:55:24;;;;;;;9.65;3.17;;;;;;;12.16;82.67;102350.66;5028349;28;20034;-79
2022/03/26 10:57:50;;;;;;;8.57;3.47;;;;;;;12.55;81.72;102380.28;5028579;28;20045;-79
2022/03/26 11:00:19;;;;;;;4.68;3.03;;;;;;;12.70;80.20;102342.38;5028329;28;20055;-78
2022/03/26 11:02:45;;;;;;;5.68;2.78;;;;;;;12.50;79.21;102318.22;5026780;28;20045;-78
2022/03/26 11:05:11;;;;;;;6.28;3.10;;;;;;;12.39;78.98;102304.94;5027585;28;20026;-78